Time;durP1;ratioP1;P1;durP2;ratioP2;P2;SDS_P1;SDS_P2;PMS_P1;PMS_P2;Temp;Humidity;BMP_temperature;BMP_pressure;BME280_temperature;BME280_humidity;BME280_pressure;Samples;Min_cycle;Max_cycle;Signal;HPM_P1;HPM_P2
2022/06/22 00:02:18;;;;;;;12.43;6.80;;;15.00;99.90;;;;;;5052765;28;20041;-85
2022/06/22 00:04:51;;;;;;;9.27;6.38;;;14.90;99.90;;;;;;5035780;28;20440;-84
2022/06/22 00:07:16;;;;;;;9.38;6.07;;;14.80;99.90;;;;;;5036166;28;20044;-84
2022/06/22 00:09:43;;;;;;;10.93;7.35;;;14.70;99.90;;;;;;5035242;28;20036;-84
2022/06/22 00:12:24;;;;;;;9.10;5.45;;;14.60;99.90;;;;;;5034971;28;20741;-84
2022/06/22 00:14:53;;;;;;;7.07;3.22;;;14.50;99.90;;;;;;5036071;28;20044;-84
2022/06/22 00:17:38;;;;;;;9.55;4.60;;;14.30;99.90;;;;;;5035198;28;20079;-84
2022/06/22 00:20:24;;;;;;;9.70;4.80;;;14.20;99.90;;;;;;5051395;28;20032;-84
2022/06/22 00:22:53;;;;;;;10.23;6.47;;;14.10;99.90;;;;;;5052544;28;20071;-84
2022/06/22 00:25:24;;;;;;;9.68;5.47;;;14.10;99.90;;;;;;5052269;28;20040;-84
2022/06/22 00:27:50;;;;;;;9.32;4.60;;;14.10;99.90;;;;;;5035008;28;20533;-84
2022/06/22 00:30:30;;;;;;;7.90;3.75;;;14.10;99.90;;;;;;5053823;28;20076;-84
2022/06/22 00:33:16;;;;;;;8.55;5.88;;;14.00;99.90;;;;;;5039131;28;20119;-84
2022/06/22 00:35:54;;;;;;;9.00;6.93;;;14.00;99.90;;;;;;5055553;28;20090;-84
2022/06/22 00:38:30;;;;;;;8.70;6.40;;;14.00;99.90;;;;;;5055813;28;20040;-83
2022/06/22 00:41:21;;;;;;;8.50;4.60;;;14.00;99.90;;;;;;5072695;28;20549;-84
2022/06/22 00:43:47;;;;;;;7.85;3.83;;;13.90;99.90;;;;;;5056334;28;20036;-83
2022/06/22 00:46:18;;;;;;;8.93;6.20;;;13.80;99.90;;;;;;5054957;28;20044;-84
2022/06/22 00:48:46;;;;;;;8.50;5.00;;;13.80;99.90;;;;;;5039463;28;20040;-83
2022/06/22 00:51:19;;;;;;;8.98;6.28;;;13.80;99.90;;;;;;5054013;28;20037;-83
2022/06/22 00:53:59;;;;;;;11.70;8.82;;;13.90;99.90;;;;;;5039525;28;20045;-83
2022/06/22 00:56:37;;;;;;;13.23;10.75;;;13.90;99.90;;;;;;5055198;28;20067;-83
2022/06/22 00:59:27;;;;;;;13.70;7.80;;;13.90;99.90;;;;;;5054327;28;20418;-83
2022/06/22 01:02:16;;;;;;;8.10;4.43;;;13.80;99.90;;;;;;5038843;28;20037;-83
2022/06/22 01:04:59;;;;;;;9.82;3.08;;;13.60;99.90;;;;;;5037774;28;20048;-83
2022/06/22 01:07:36;;;;;;;4.82;1.95;;;13.60;99.90;;;;;;5055605;28;20040;-83
2022/06/22 01:10:11;;;;;;;7.07;3.15;;;13.40;99.90;;;;;;5053917;28;20444;-84
2022/06/22 01:12:48;;;;;;;6.20;2.65;;;13.30;99.90;;;;;;5038441;28;20089;-83
2022/06/22 01:15:32;;;;;;;8.15;4.72;;;13.20;99.90;;;;;;5037941;28;20036;-83
2022/06/22 01:18:41;;;;;;;8.35;3.22;;;13.30;99.90;;;;;;5055674;28;20059;-83
2022/06/22 01:21:18;;;;;;;6.75;2.78;;;13.20;99.90;;;;;;5052996;28;20037;-83
2022/06/22 01:24:13;;;;;;;7.72;2.50;;;13.10;99.90;;;;;;5055686;28;20032;-83
2022/06/22 01:27:17;;;;;;;8.38;5.20;;;12.90;99.90;;;;;;5054081;28;20514;-83
2022/06/22 01:29:59;;;;;;;6.50;2.58;;;13.00;99.90;;;;;;5054426;28;20048;-83
2022/06/22 01:32:35;;;;;;;6.40;2.17;;;12.90;99.90;;;;;;5053875;28;20081;-83
2022/06/22 01:35:12;;;;;;;5.55;2.20;;;12.80;99.90;;;;;;5054781;28;20124;-83
2022/06/22 01:37:38;;;;;;;6.00;2.80;;;12.70;99.90;;;;;;5054293;28;20076;-83
2022/06/22 01:40:15;;;;;;;5.63;1.80;;;12.70;99.90;;;;;;5037755;28;20075;-83
2022/06/22 01:43:06;;;;;;;5.53;2.03;;;12.70;99.90;;;;;;5052648;28;20097;-83
2022/06/22 01:45:46;;;;;;;6.95;2.17;;;12.60;99.90;;;;;;5054779;28;20071;-83
2022/06/22 01:48:17;;;;;;;5.80;2.05;;;12.60;99.90;;;;;;5037626;28;20067;-83
2022/06/22 01:50:51;;;;;;;5.10;1.92;;;12.50;99.90;;;;;;5036462;28;20040;-83
2022/06/22 01:53:24;;;;;;;4.85;2.25;;;12.50;99.90;;;;;;5054535;28;20098;-83
2022/06/22 01:56:03;;;;;;;4.05;1.55;;;12.60;99.90;;;;;;5053927;28;20048;-83
2022/06/22 01:58:55;;;;;;;4.63;1.60;;;12.50;99.90;;;;;;5054701;28;20041;-83
2022/06/22 02:01:33;;;;;;;3.65;1.48;;;12.50;99.90;;;;;;5053188;28;20039;-83
2022/06/22 02:04:13;;;;;;;2.95;1.45;;;12.50;99.90;;;;;;5037591;28;20051;-83
2022/06/22 02:09:53;;;;;;;4.13;1.60;;;12.40;99.90;;;;;;5053102;28;20056;-83
2022/06/22 02:12:26;;;;;;;5.15;2.10;;;12.30;99.90;;;;;;5053651;28;20063;-83
2022/06/22 02:15:04;;;;;;;7.65;3.80;;;12.20;99.90;;;;;;5053963;28;20037;-83
2022/06/22 02:17:34;;;;;;;7.40;2.90;;;12.30;99.90;;;;;;5053888;28;20044;-83
2022/06/22 02:20:18;;;;;;;8.80;5.13;;;12.20;99.90;;;;;;5053344;28;20036;-83
2022/06/22 02:22:46;;;;;;;11.60;5.57;;;12.20;99.90;;;;;;5053506;28;20412;-83
2022/06/22 02:25:14;;;;;;;11.05;5.20;;;12.20;99.90;;;;;;5053839;28;20095;-83
2022/06/22 02:27:40;;;;;;;11.43;7.93;;;12.20;99.90;;;;;;5053181;28;20040;-83
2022/06/22 02:30:06;;;;;;;7.55;3.17;;;12.20;99.90;;;;;;5036739;28;20044;-83
2022/06/22 02:32:35;;;;;;;4.57;1.70;;;12.20;99.90;;;;;;5036792;28;20066;-83
2022/06/22 02:35:04;;;;;;;5.97;2.83;;;12.20;99.90;;;;;;5029263;28;20111;-83
2022/06/22 02:37:34;;;;;;;7.47;4.00;;;12.20;99.90;;;;;;5037069;28;20522;-83
2022/06/22 02:40:04;;;;;;;5.85;2.35;;;12.20;99.90;;;;;;5070329;28;20060;-83
2022/06/22 02:45:17;;;;;;;8.85;3.67;;;12.00;99.90;;;;;;5052841;28;20506;-82
2022/06/22 02:48:00;;;;;;;7.80;2.95;;;12.00;99.90;;;;;;5037003;28;20107;-83
2022/06/22 02:50:38;;;;;;;7.60;3.30;;;11.90;99.90;;;;;;5036262;28;20192;-84
2022/06/22 02:53:13;;;;;;;9.77;3.83;;;11.80;99.90;;;;;;5035408;28;20043;-84
2022/06/22 02:55:38;;;;;;;9.18;5.47;;;11.90;99.90;;;;;;5036802;28;20527;-83
2022/06/22 02:58:30;;;;;;;9.57;2.88;;;11.90;99.90;;;;;;5036338;28;20131;-83
2022/06/22 03:01:00;;;;;;;4.63;1.55;;;11.80;99.90;;;;;;5053054;28;20063;-83
2022/06/22 03:03:28;;;;;;;3.85;1.50;;;11.80;99.90;;;;;;5035666;28;20033;-84
2022/06/22 03:05:56;;;;;;;5.03;2.28;;;11.70;99.90;;;;;;5053077;28;20048;-84
2022/06/22 03:08:22;;;;;;;4.07;1.77;;;11.70;99.90;;;;;;5053460;28;20036;-83
2022/06/22 03:10:55;;;;;;;3.58;1.48;;;11.60;99.90;;;;;;5051635;28;20095;-84
2022/06/22 03:13:26;;;;;;;6.95;2.13;;;11.50;99.90;;;;;;5053033;28;20087;-83
2022/06/22 03:15:52;;;;;;;5.38;1.80;;;11.40;99.90;;;;;;5035904;28;20044;-83
2022/06/22 03:18:27;;;;;;;6.40;1.70;;;11.30;99.90;;;;;;5052981;28;20123;-83
2022/06/22 03:21:06;;;;;;;6.18;2.20;;;11.20;99.90;;;;;;5035465;28;20163;-83
2022/06/22 03:23:56;;;;;;;6.65;2.88;;;11.20;99.90;;;;;;5035998;28;20080;-83
2022/06/22 03:26:36;;;;;;;6.55;2.60;;;11.10;99.90;;;;;;5036247;28;20040;-84
2022/06/22 03:29:18;;;;;;;3.50;1.40;;;11.10;99.90;;;;;;5052651;28;20504;-84
2022/06/22 03:32:00;;;;;;;5.30;1.80;;;11.00;99.90;;;;;;5035488;28;20037;-83
2022/06/22 03:34:30;;;;;;;3.78;1.73;;;11.00;99.90;;;;;;5034501;28;20033;-84
2022/06/22 03:37:18;;;;;;;4.03;1.70;;;11.00;99.90;;;;;;5052766;28;20044;-83
2022/06/22 03:39:51;;;;;;;5.97;2.22;;;11.00;99.90;;;;;;5051871;28;20714;-83
2022/06/22 03:42:27;;;;;;;5.88;2.50;;;11.00;99.90;;;;;;5035383;28;20671;-83
2022/06/22 03:45:01;;;;;;;6.25;2.67;;;11.00;99.90;;;;;;5053582;28;20367;-84
2022/06/22 03:47:45;;;;;;;4.97;2.20;;;11.00;99.90;;;;;;5052493;28;20700;-83
2022/06/22 03:50:23;;;;;;;4.95;2.20;;;11.00;99.90;;;;;;5035990;28;20090;-83
2022/06/22 03:52:56;;;;;;;6.20;2.20;;;11.00;99.90;;;;;;5034882;28;20498;-83
2022/06/22 03:55:30;;;;;;;7.63;2.90;;;11.00;99.90;;;;;;5036008;28;20047;-82
2022/06/22 03:57:57;;;;;;;5.97;2.78;;;11.00;99.90;;;;;;5052435;28;20090;-83
2022/06/22 04:00:23;;;;;;;6.63;2.65;;;10.90;99.90;;;;;;5051889;28;20075;-83
2022/06/22 04:02:49;;;;;;;5.85;2.55;;;10.90;99.90;;;;;;5035753;28;20072;-83
2022/06/22 04:05:22;;;;;;;7.93;3.85;;;10.90;99.90;;;;;;5054054;28;20025;-83
2022/06/22 04:07:49;;;;;;;9.27;4.25;;;10.90;99.90;;;;;;5040129;28;20028;-83
2022/06/22 04:10:47;;;;;;;10.95;4.97;;;10.90;99.90;;;;;;5055417;28;20509;-83
2022/06/22 04:13:25;;;;;;;8.52;4.97;;;10.90;99.90;;;;;;5031594;28;20144;-83
2022/06/22 04:16:01;;;;;;;11.23;6.30;;;11.00;99.90;;;;;;5055832;28;20048;-83
2022/06/22 04:18:32;;;;;;;10.70;5.43;;;11.00;99.90;;;;;;5040162;28;20052;-83
2022/06/22 04:21:03;;;;;;;11.55;6.20;;;11.00;99.90;;;;;;5055696;28;20040;-83
2022/06/22 04:23:40;;;;;;;10.30;6.18;;;11.00;99.90;;;;;;5055130;28;20097;-83
2022/06/22 04:26:29;;;;;;;11.35;6.45;;;11.10;99.90;;;;;;5056595;28;20498;-83
2022/06/22 04:29:07;;;;;;;10.90;6.68;;;11.10;99.90;;;;;;5055475;28;20050;-83
2022/06/22 04:31:36;;;;;;;10.02;6.50;;;11.10;99.90;;;;;;5039038;28;20086;-83
2022/06/22 04:34:29;;;;;;;10.32;6.70;;;11.20;99.90;;;;;;5055466;28;20123;-83
2022/06/22 04:36:57;;;;;;;11.50;7.10;;;11.20;99.90;;;;;;5039599;28;20041;-83
2022/06/22 04:39:35;;;;;;;14.30;8.70;;;11.30;99.90;;;;;;5054812;28;20037;-82
2022/06/22 04:42:03;;;;;;;12.38;8.43;;;11.30;99.90;;;;;;5048124;28;20349;-81
2022/06/22 04:44:33;;;;;;;13.52;8.60;;;11.40;99.90;;;;;;5054108;28;20090;-82
2022/06/22 04:47:12;;;;;;;32.28;10.05;;;11.40;99.90;;;;;;5040887;28;20075;-82
2022/06/22 04:49:49;;;;;;;29.00;13.68;;;11.50;99.90;;;;;;5039945;28;20563;-82
2022/06/22 04:52:21;;;;;;;17.17;8.85;;;11.60;99.90;;;;;;5054637;28;20037;-82
2022/06/22 04:54:50;;;;;;;15.50;8.70;;;11.70;99.90;;;;;;5055878;28;20468;-83
2022/06/22 04:57:42;;;;;;;15.57;9.68;;;11.70;99.90;;;;;;5055462;28;20037;-82
2022/06/22 05:00:14;;;;;;;17.55;14.98;;;11.80;99.90;;;;;;5034708;28;20048;-83
2022/06/22 05:02:43;;;;;;;19.35;10.90;;;11.90;99.90;;;;;;5030029;28;20040;-82
2022/06/22 05:05:24;;;;;;;13.25;9.75;;;12.00;99.90;;;;;;5056088;28;20028;-83
2022/06/22 05:08:05;;;;;;;18.15;16.30;;;12.00;99.90;;;;;;5038256;28;20120;-83
2022/06/22 05:10:52;;;;;;;14.00;9.52;;;12.20;99.90;;;;;;5054992;28;20391;-83
2022/06/22 05:13:38;;;;;;;18.77;10.23;;;12.20;99.90;;;;;;5054685;28;20147;-83
2022/06/22 05:16:08;;;;;;;16.48;14.57;;;12.30;99.90;;;;;;5038483;28;20044;-83
2022/06/22 05:18:37;;;;;;;16.23;11.52;;;12.40;99.90;;;;;;5055337;28;20025;-83
2022/06/22 05:21:18;;;;;;;17.08;10.40;;;12.50;99.90;;;;;;5054363;28;20492;-83
2022/06/22 05:23:50;;;;;;;17.67;11.23;;;12.50;99.90;;;;;;5038233;28;20037;-83
2022/06/22 05:26:19;;;;;;;15.48;12.00;;;12.60;99.90;;;;;;5054841;28;20040;-84
2022/06/22 05:29:10;;;;;;;21.42;12.30;;;12.70;99.90;;;;;;5038319;28;20040;-84
2022/06/22 05:31:46;;;;;;;19.55;15.57;;;12.80;99.90;;;;;;5029939;28;20084;-84
2022/06/22 05:34:24;;;;;;;19.30;12.75;;;12.90;99.90;;;;;;5054675;28;20116;-84
2022/06/22 05:36:56;;;;;;;21.13;18.92;;;13.00;99.90;;;;;;5055017;28;20040;-83
2022/06/22 05:39:22;;;;;;;18.55;13.02;;;13.10;99.90;;;;;;5037136;28;20068;-83
2022/06/22 05:41:49;;;;;;;19.83;13.05;;;13.20;99.90;;;;;;5054278;28;20115;-83
2022/06/22 05:44:18;;;;;;;17.20;12.10;;;13.20;99.90;;;;;;5054416;28;20044;-84
2022/06/22 05:46:56;;;;;;;20.80;18.70;;;13.30;99.90;;;;;;5054356;28;20040;-84
2022/06/22 05:49:32;;;;;;;20.73;13.93;;;13.50;99.90;;;;;;5054575;28;20048;-84
2022/06/22 05:52:10;;;;;;;22.55;20.13;;;13.60;99.90;;;;;;5037440;28;20044;-83
2022/06/22 05:54:57;;;;;;;22.92;14.55;;;13.70;99.90;;;;;;5037692;28;20398;-84
2022/06/22 05:57:49;;;;;;;22.80;20.50;;;13.80;99.90;;;;;;5054088;28;20124;-85
2022/06/22 06:00:21;;;;;;;19.53;13.63;;;13.90;99.90;;;;;;5045897;28;20537;-85
2022/06/22 06:02:57;;;;;;;22.08;15.82;;;14.00;99.90;;;;;;5036642;28;20032;-84
2022/06/22 06:05:28;;;;;;;20.92;15.13;;;14.10;99.90;;;;;;5038066;28;20036;-85
2022/06/22 06:07:57;;;;;;;25.02;16.77;;;14.20;99.90;;;;;;5037112;28;20039;-85
2022/06/22 06:10:31;;;;;;;22.55;20.08;;;14.30;99.90;;;;;;5046035;28;20041;-85
2022/06/22 06:13:03;;;;;;;20.67;15.45;;;14.50;99.90;;;;;;5048936;28;20440;-85
2022/06/22 06:15:32;;;;;;;24.20;18.67;;;14.60;99.90;;;;;;5033669;28;20061;-85
2022/06/22 06:17:59;;;;;;;19.52;16.27;;;14.70;99.90;;;;;;5074440;28;20036;-84
2022/06/22 06:20:41;;;;;;;22.23;17.52;;;14.80;99.90;;;;;;5054563;28;20028;-84
2022/06/22 06:23:40;;;;;;;21.75;17.10;;;14.90;99.90;;;;;;5053271;28;20040;-85
2022/06/22 06:29:13;;;;;;;17.77;13.77;;;15.20;99.90;;;;;;5056282;28;20040;-85
2022/06/22 06:32:30;;;;;;;23.45;16.42;;;15.30;99.90;;;;;;5047482;28;20035;-85
2022/06/22 06:35:15;;;;;;;18.17;11.65;;;15.50;99.90;;;;;;5003881;28;20045;-85
2022/06/22 06:37:59;;;;;;;16.90;13.77;;;15.50;99.90;;;;;;5002676;28;20121;-85
2022/06/22 06:40:51;;;;;;;17.33;14.20;;;15.70;99.90;;;;;;5001874;28;20555;-85
2022/06/22 06:43:29;;;;;;;15.55;12.25;;;15.80;99.90;;;;;;4984671;28;20377;-85
2022/06/22 06:45:57;;;;;;;17.60;12.63;;;15.90;99.90;;;;;;5011565;28;20064;-85
2022/06/22 06:48:25;;;;;;;14.82;11.18;;;16.00;99.90;;;;;;5012405;28;20049;-85
2022/06/22 06:50:56;;;;;;;14.52;10.77;;;16.10;99.90;;;;;;5012423;28;20482;-85
2022/06/22 06:53:35;;;;;;;14.23;10.38;;;16.20;99.90;;;;;;4994988;28;20132;-86
2022/06/22 06:56:07;;;;;;;15.05;10.32;;;16.30;99.90;;;;;;5004114;28;20038;-85
2022/06/22 06:58:47;;;;;;;13.85;10.20;;;16.40;99.90;;;;;;5003309;28;20056;-85
2022/06/22 07:01:23;;;;;;;14.13;10.20;;;16.40;99.90;;;;;;5001524;28;20049;-86
2022/06/22 07:03:56;;;;;;;13.95;10.15;;;16.50;99.90;;;;;;4996065;28;20578;-86
2022/06/22 07:06:21;;;;;;;;;;;16.60;99.90;;;;;;5012420;28;20057;-86
2022/06/22 07:08:55;;;;;;;13.77;9.80;;;16.60;99.90;;;;;;5012580;28;19928;-86
2022/06/22 07:11:33;;;;;;;15.32;10.43;;;16.70;99.90;;;;;;5033145;28;20052;-85
2022/06/22 07:14:26;;;;;;;14.05;10.05;;;16.80;99.90;;;;;;5035541;28;20529;-85
2022/06/22 07:16:57;;;;;;;13.73;9.25;;;16.90;99.90;;;;;;5053462;28;20115;-85
2022/06/22 07:19:31;;;;;;;14.05;7.57;;;17.00;99.90;;;;;;5052516;28;20085;-85
2022/06/22 07:22:03;;;;;;;13.80;8.52;;;17.10;99.90;;;;;;5035907;28;20041;-85
2022/06/22 07:24:34;;;;;;;13.60;8.73;;;17.10;99.90;;;;;;5052461;28;20036;-85
2022/06/22 07:27:19;;;;;;;13.02;8.40;;;17.30;99.90;;;;;;5036270;28;20078;-85
2022/06/22 07:29:56;;;;;;;12.70;7.32;;;17.40;99.90;;;;;;5052101;28;20045;-85
2022/06/22 07:32:36;;;;;;;13.50;6.85;;;17.40;99.90;;;;;;5035493;28;20040;-86
2022/06/22 07:35:11;;;;;;;14.70;6.68;;;17.50;99.90;;;;;;5052901;28;20090;-85
2022/06/22 07:37:45;;;;;;;15.57;6.88;;;17.60;99.90;;;;;;5052579;28;20094;-85
2022/06/22 07:40:21;;;;;;;13.57;6.57;;;17.60;99.90;;;;;;5054829;28;20047;-85
2022/06/22 07:42:50;;;;;;;10.52;6.05;;;17.70;99.90;;;;;;5055512;28;20037;-85
2022/06/22 07:45:19;;;;;;;11.30;6.63;;;17.80;99.90;;;;;;5056497;28;20040;-85
2022/06/22 07:48:04;;;;;;;11.63;6.45;;;17.80;99.90;;;;;;5057061;28;20166;-85
2022/06/22 07:50:36;;;;;;;10.82;6.72;;;18.00;99.90;;;;;;5056252;28;20044;-85
2022/06/22 07:53:24;;;;;;;;;;;18.00;99.90;;;;;;5043144;28;20052;-85
2022/06/22 07:55:53;;;;;;;12.10;5.82;;;18.00;99.90;;;;;;5049999;28;19988;-87
2022/06/22 07:58:36;;;;;;;11.25;6.35;;;18.10;99.90;;;;;;5056934;28;20047;-85
2022/06/22 08:01:12;;;;;;;10.80;6.45;;;18.20;99.90;;;;;;5055870;28;20029;-85
2022/06/22 08:03:53;;;;;;;10.93;5.25;;;18.30;99.90;;;;;;5055948;28;20090;-85
2022/06/22 08:06:29;;;;;;;11.80;5.45;;;18.40;99.90;;;;;;5076146;28;20051;-85
2022/06/22 08:09:33;;;;;;;14.70;4.85;;;18.40;99.90;;;;;;5030374;28;20072;-85
2022/06/22 08:12:22;;;;;;;8.95;4.47;;;18.50;99.90;;;;;;5040625;28;20141;-85
2022/06/22 08:14:52;;;;;;;9.52;3.90;;;18.60;99.90;;;;;;5051232;28;20410;-85
2022/06/22 08:17:23;;;;;;;8.75;3.90;;;18.70;99.90;;;;;;5056666;28;20041;-85
2022/06/22 08:19:49;;;;;;;8.05;3.30;;;18.70;99.90;;;;;;5055518;28;20040;-85
2022/06/22 08:22:14;;;;;;;10.50;4.07;;;18.80;99.90;;;;;;5055667;28;20059;-85
2022/06/22 08:24:44;;;;;;;9.85;4.47;;;18.90;99.90;;;;;;5055043;28;20121;-86
2022/06/22 08:27:17;;;;;;;8.02;3.00;;;19.00;99.90;;;;;;5057088;28;20032;-85
2022/06/22 08:29:44;;;;;;;7.35;2.55;;;19.00;99.90;;;;;;5039151;28;20035;-85
2022/06/22 08:32:28;;;;;;;4.72;1.50;;;19.10;99.90;;;;;;5039263;28;20047;-85
2022/06/22 08:34:58;;;;;;;4.85;1.42;;;19.20;99.00;;;;;;5055448;28;20040;-86
2022/06/22 08:37:36;;;;;;;4.55;1.65;;;19.20;97.60;;;;;;5061716;28;20048;-85
2022/06/22 08:40:38;;;;;;;6.30;2.13;;;19.20;96.20;;;;;;5040270;28;20040;-85
2022/06/22 08:43:33;;;;;;;7.90;3.20;;;19.20;97.10;;;;;;5038237;28;20040;-86
2022/06/22 08:46:16;;;;;;;9.27;2.92;;;19.30;99.30;;;;;;5050782;28;20091;-86
2022/06/22 08:48:50;;;;;;;;;;;19.40;99.10;;;;;;5039882;28;20050;-85
2022/06/22 08:51:32;;;;;;;7.63;2.60;;;19.40;99.90;;;;;;5038155;28;19923;-86
2022/06/22 08:54:12;;;;;;;7.25;2.10;;;19.50;99.40;;;;;;5055278;28;20433;-86
2022/06/22 08:57:06;;;;;;;5.85;2.00;;;19.60;97.30;;;;;;5055673;28;20046;-85
2022/06/22 09:00:14;;;;;;;5.60;2.15;;;19.70;96.20;;;;;;5054997;28;20555;-86
2022/06/22 09:02:54;;;;;;;6.80;2.28;;;19.70;95.20;;;;;;5054591;28;20036;-85
2022/06/22 09:05:29;;;;;;;6.75;2.15;;;19.80;95.20;;;;;;5038529;28;20533;-85
2022/06/22 09:08:25;;;;;;;6.00;2.25;;;19.90;94.10;;;;;;5055332;28;20041;-85
2022/06/22 09:11:29;;;;;;;6.70;1.90;;;20.00;94.20;;;;;;5055124;28;20496;-86
2022/06/22 09:14:13;;;;;;;5.40;1.77;;;20.10;95.00;;;;;;5042890;28;20107;-86
2022/06/22 09:16:44;;;;;;;7.10;2.22;;;20.10;91.40;;;;;;5018802;28;20049;-85
2022/06/22 09:19:28;;;;;;;6.72;2.50;;;20.20;91.50;;;;;;5036667;28;20033;-86
2022/06/22 09:22:15;;;;;;;6.75;2.22;;;20.30;93.20;;;;;;5055162;28;20126;-86
2022/06/22 09:25:05;;;;;;;6.35;2.03;;;20.30;87.80;;;;;;5054990;28;20059;-86
2022/06/22 09:28:11;;;;;;;8.00;2.38;;;20.40;92.10;;;;;;5053489;28;20524;-85
2022/06/22 09:30:55;;;;;;;6.53;2.30;;;20.50;94.80;;;;;;4991945;28;20041;-85
2022/06/22 09:33:32;;;;;;;7.15;1.90;;;20.50;91.30;;;;;;4977410;28;20399;-86
2022/06/22 09:36:16;;;;;;;5.72;1.90;;;20.60;89.40;;;;;;5034824;28;20044;-86
2022/06/22 09:39:02;;;;;;;5.78;1.70;;;20.60;84.90;;;;;;5037940;28;20485;-85
2022/06/22 09:41:33;;;;;;;4.95;1.70;;;20.70;84.10;;;;;;5024317;28;20040;-86
2022/06/22 09:44:12;;;;;;;8.20;3.85;;;20.80;79.50;;;;;;5053756;28;20036;-85
2022/06/22 09:46:41;;;;;;;7.88;2.40;;;20.80;80.60;;;;;;5044320;28;20387;-85
2022/06/22 09:49:28;;;;;;;5.47;1.50;;;20.90;78.20;;;;;;5058431;28;20044;-85
2022/06/22 09:52:07;;;;;;;6.63;1.45;;;21.00;71.20;;;;;;5062514;28;20127;-85
2022/06/22 09:57:59;;;;;;;6.35;2.40;;;21.10;73.70;;;;;;5060914;28;20044;-86
2022/06/22 10:00:48;;;;;;;6.72;2.42;;;21.10;77.80;;;;;;5043501;28;20040;-86
2022/06/22 10:03:27;;;;;;;5.55;2.08;;;21.30;80.40;;;;;;5062148;28;20024;-86
2022/06/22 10:06:16;;;;;;;7.72;3.00;;;21.30;80.50;;;;;;5061037;28;20074;-85
2022/06/22 10:08:59;;;;;;;17.20;2.25;;;21.50;82.60;;;;;;5064961;28;20115;-85
2022/06/22 10:11:46;;;;;;;9.55;2.00;;;21.60;80.70;;;;;;5058909;28;20080;-85
2022/06/22 10:14:21;;;;;;;7.95;1.95;;;21.60;76.70;;;;;;5045495;28;20456;-86
2022/06/22 10:17:01;;;;;;;6.47;2.10;;;21.70;76.00;;;;;;5045621;28;20482;-86
2022/06/22 10:19:34;;;;;;;6.13;2.15;;;21.80;71.30;;;;;;5043693;28;20562;-85
2022/06/22 10:22:21;;;;;;;5.90;1.90;;;21.80;73.90;;;;;;5056870;28;20029;-85
2022/06/22 10:25:11;;;;;;;6.85;1.85;;;21.90;72.50;;;;;;5053619;28;20301;-85
2022/06/22 10:28:05;;;;;;;6.50;1.80;;;22.00;70.60;;;;;;5053309;28;20489;-85
2022/06/22 10:30:53;;;;;;;6.95;1.90;;;22.10;70.50;;;;;;5053195;28;20045;-85
2022/06/22 10:33:27;;;;;;;5.78;1.88;;;22.20;71.30;;;;;;5053414;28;20532;-85
2022/06/22 10:36:11;;;;;;;5.32;1.80;;;22.30;67.40;;;;;;5052593;28;20040;-86
2022/06/22 10:39:01;;;;;;;3.55;1.40;;;22.40;66.90;;;;;;5053555;28;20043;-85
2022/06/22 10:45:10;;;;;;;7.68;1.88;;;22.50;62.50;;;;;;5052537;28;20048;-86
2022/06/22 10:47:51;;;;;;;5.10;1.50;;;22.50;60.30;;;;;;5037197;28;20089;-85
2022/06/22 10:50:32;;;;;;;6.38;1.83;;;22.50;59.80;;;;;;5035815;28;20047;-85
2022/06/22 10:53:16;;;;;;;5.47;1.70;;;22.60;60.60;;;;;;5036598;28;20041;-85
2022/06/22 10:56:16;;;;;;;5.85;1.70;;;22.60;60.00;;;;;;5052919;28;20075;-86
2022/06/22 10:59:03;;;;;;;7.15;2.50;;;22.70;59.50;;;;;;5048681;28;20044;-85
2022/06/22 11:01:56;;;;;;;8.55;3.90;;;22.70;60.40;;;;;;5053555;28;20040;-85
2022/06/22 11:04:48;;;;;;;7.00;2.03;;;22.80;58.40;;;;;;5052188;28;20686;-86
2022/06/22 11:07:31;;;;;;;5.67;1.67;;;23.00;61.30;;;;;;5053457;28;20040;-85
2022/06/22 11:10:05;;;;;;;7.25;1.80;;;23.00;60.70;;;;;;5052709;28;20041;-86
2022/06/22 11:13:08;;;;;;;6.22;1.70;;;23.20;59.50;;;;;;5052697;28;20044;-85
2022/06/22 11:15:54;;;;;;;5.35;1.55;;;23.30;61.00;;;;;;5049530;28;20049;-86
2022/06/22 11:18:47;;;;;;;5.03;1.50;;;23.40;59.50;;;;;;5058199;28;20032;-85
2022/06/22 11:21:22;;;;;;;5.47;1.60;;;23.50;60.40;;;;;;5061467;28;20032;-86
2022/06/22 11:24:21;;;;;;;6.57;1.67;;;23.60;59.90;;;;;;5044992;28;20485;-86
2022/06/22 11:32:52;;;;;;;7.38;1.58;;;24.10;60.00;;;;;;5059686;28;20044;-86
2022/06/22 11:35:50;;;;;;;4.78;1.52;;;24.20;58.30;;;;;;5048051;28;20953;-84
2022/06/22 11:38:35;;;;;;;5.65;1.50;;;24.20;56.70;;;;;;5030931;28;21744;-86
2022/06/22 11:41:30;;;;;;;6.28;2.15;;;24.30;56.10;;;;;;5060718;28;20305;-85
2022/06/22 11:44:18;;;;;;;5.07;1.45;;;24.40;55.80;;;;;;5059060;28;20052;-85
2022/06/22 11:46:54;;;;;;;5.20;1.98;;;24.50;58.00;;;;;;5051663;28;20201;-84
2022/06/22 11:49:47;;;;;;;8.70;3.00;;;24.60;54.80;;;;;;5068710;28;20044;-86
2022/06/22 11:52:33;;;;;;;8.18;2.67;;;24.60;55.80;;;;;;5042295;28;20120;-85
2022/06/22 11:55:20;;;;;;;8.32;1.90;;;24.70;56.40;;;;;;5051067;28;20051;-85
2022/06/22 11:57:58;;;;;;;7.22;1.67;;;24.80;55.30;;;;;;5050709;28;20116;-85
2022/06/22 12:00:49;;;;;;;5.18;1.60;;;24.90;55.00;;;;;;5052390;28;20126;-86
2022/06/22 12:03:49;;;;;;;5.25;1.95;;;25.00;55.10;;;;;;5050578;28;20028;-85
2022/06/22 12:06:43;;;;;;;5.38;1.92;;;25.10;54.40;;;;;;5051739;28;20064;-85
2022/06/22 12:09:48;;;;;;;5.93;1.65;;;25.20;53.50;;;;;;5050981;28;20075;-85
2022/06/22 12:12:34;;;;;;;9.52;1.83;;;25.40;54.00;;;;;;5003247;28;20048;-85
2022/06/22 12:15:10;;;;;;;5.68;1.60;;;25.20;51.00;;;;;;5050859;28;20464;-85
2022/06/22 12:17:57;;;;;;;5.50;1.88;;;25.30;53.10;;;;;;5051587;28;20041;-85
2022/06/22 12:20:51;;;;;;;4.05;1.55;;;25.30;52.10;;;;;;5051451;28;20119;-85
2022/06/22 12:23:55;;;;;;;5.55;1.50;;;25.50;54.00;;;;;;5052073;28;20032;-85
2022/06/22 12:26:47;;;;;;;4.90;1.45;;;25.60;52.80;;;;;;5053150;28;20041;-85
2022/06/22 12:29:50;;;;;;;5.68;1.50;;;25.80;53.50;;;;;;5039862;28;20122;-85
2022/06/22 12:32:39;;;;;;;5.65;1.60;;;25.90;51.10;;;;;;5055141;28;20237;-85
2022/06/22 12:35:24;;;;;;;4.43;1.40;;;25.90;51.50;;;;;;5037608;28;20036;-86
2022/06/22 12:38:27;;;;;;;5.28;1.30;;;26.10;51.20;;;;;;5055622;28;20700;-86
2022/06/22 12:41:13;;;;;;;6.43;1.60;;;26.20;51.80;;;;;;5044727;28;20517;-85
2022/06/22 12:43:53;;;;;;;6.10;1.40;;;26.30;49.60;;;;;;5054911;28;20045;-86
2022/06/22 12:46:36;;;;;;;4.13;1.40;;;26.40;49.90;;;;;;5053360;28;20038;-86
2022/06/22 12:49:28;;;;;;;3.00;1.20;;;26.50;49.00;;;;;;5038997;28;20044;-86
2022/06/22 12:52:02;;;;;;;4.55;1.50;;;26.60;49.90;;;;;;5055488;28;20529;-86
2022/06/22 12:54:44;;;;;;;6.78;1.50;;;26.80;50.00;;;;;;5055162;28;20409;-86
2022/06/22 12:57:14;;;;;;;4.40;1.40;;;26.80;48.30;;;;;;5055528;28;20406;-86
2022/06/22 12:59:51;;;;;;;4.13;1.27;;;26.80;48.30;;;;;;5037368;28;20070;-85
2022/06/22 13:02:26;;;;;;;4.07;1.50;;;26.80;47.20;;;;;;5055515;28;20044;-86
2022/06/22 13:04:58;;;;;;;4.45;1.50;;;26.80;47.80;;;;;;5054240;28;20040;-86
2022/06/22 13:07:24;;;;;;;4.97;1.52;;;27.00;48.30;;;;;;5055530;28;20041;-86
2022/06/22 13:09:50;;;;;;;5.03;1.42;;;27.00;47.80;;;;;;5056171;28;20408;-86
2022/06/22 13:12:28;;;;;;;5.15;1.55;;;27.10;48.40;;;;;;5048676;28;20044;-86
2022/06/22 13:15:10;;;;;;;5.57;1.42;;;27.20;48.30;;;;;;5055524;28;20041;-86
2022/06/22 13:17:54;;;;;;;5.63;1.40;;;27.30;48.70;;;;;;5054396;28;20126;-85
2022/06/22 13:20:44;;;;;;;6.15;1.65;;;27.40;49.30;;;;;;5038346;28;20051;-86
2022/06/22 13:23:36;;;;;;;2.92;1.20;;;27.50;49.30;;;;;;5054468;28;20048;-86
2022/06/22 13:26:23;;;;;;;4.60;1.33;;;27.60;49.40;;;;;;5051275;28;20056;-85
2022/06/22 13:29:05;;;;;;;6.35;1.55;;;27.60;47.50;;;;;;5054393;28;20123;-85
2022/06/22 13:31:36;;;;;;;5.90;1.63;;;27.70;47.20;;;;;;5038357;28;20447;-85
2022/06/22 13:34:09;;;;;;;7.43;1.40;;;27.60;45.20;;;;;;5038391;28;20035;-85
2022/06/22 13:36:53;;;;;;;4.70;1.40;;;27.60;45.90;;;;;;5054193;28;20037;-85
2022/06/22 13:40:02;;;;;;;4.55;1.52;;;27.70;47.20;;;;;;5038085;28;20433;-85
2022/06/22 13:42:42;;;;;;;5.07;1.67;;;27.70;45.60;;;;;;5054509;28;20119;-85
2022/06/22 13:45:24;;;;;;;6.88;2.05;;;27.80;46.20;;;;;;5050511;28;20064;-86
2022/06/22 13:48:09;;;;;;;6.28;1.92;;;27.90;47.00;;;;;;5036794;28;20044;-85
2022/06/22 13:54:26;;;;;;;5.82;1.52;;;28.00;46.50;;;;;;5054216;28;20481;-85
2022/06/22 13:57:01;;;;;;;8.25;1.90;;;28.00;46.10;;;;;;5030748;28;20106;-86
2022/06/22 14:00:19;;;;;;;4.55;1.60;;;28.00;46.60;;;;;;5037192;28;20041;-86
2022/06/22 14:02:51;;;;;;;6.00;2.13;;;28.20;46.80;;;;;;4991675;28;20054;-86
2022/06/22 14:05:37;;;;;;;4.85;1.60;;;28.10;45.90;;;;;;4992728;28;20100;-86
2022/06/22 14:08:17;;;;;;;6.20;1.48;;;28.10;44.80;;;;;;4991428;28;20038;-85
2022/06/22 14:11:06;;;;;;;5.03;1.55;;;28.10;45.40;;;;;;4993531;28;20038;-86
2022/06/22 14:13:40;;;;;;;9.07;2.17;;;28.20;46.00;;;;;;5009240;28;20828;-86